createdAt,value
2023-02-06T00:02:23.828Z,7.03
2023-02-06T00:06:06.150Z,6.22
2023-02-06T00:09:48.210Z,6.70
2023-02-06T00:13:30.208Z,6.63
2023-02-06T00:17:12.241Z,6.05
2023-02-06T00:20:54.349Z,6.28
2023-02-06T00:24:36.554Z,5.63
2023-02-06T00:28:18.696Z,5.93
2023-02-06T00:32:00.821Z,6.68
2023-02-06T00:35:42.793Z,6.45
2023-02-06T00:39:26.105Z,5.97
2023-02-06T00:43:08.140Z,6.82
2023-02-06T00:46:50.237Z,6.32
2023-02-06T00:50:32.509Z,6.90
2023-02-06T00:54:14.598Z,6.43
2023-02-06T00:57:56.520Z,5.80
2023-02-06T01:01:39.016Z,5.90
2023-02-06T01:05:21.024Z,6.07
2023-02-06T01:09:03.124Z,5.38
2023-02-06T01:12:45.129Z,5.70
2023-02-06T01:16:27.176Z,6.13
2023-02-06T01:20:12.280Z,5.30
2023-02-06T01:23:55.260Z,5.80
2023-02-06T01:27:38.491Z,5.40
2023-02-06T01:31:31.363Z,6.22
2023-02-06T01:35:13.373Z,5.60
2023-02-06T01:38:55.450Z,5.32
2023-02-06T01:42:38.606Z,5.53
2023-02-06T01:46:20.798Z,6.32
2023-02-06T01:50:03.278Z,5.88
2023-02-06T01:53:50.947Z,6.17
2023-02-06T01:57:34.570Z,7.35
2023-02-06T02:01:17.312Z,7.72
2023-02-06T02:05:03.989Z,8.30
2023-02-06T02:08:48.331Z,9.50
2023-02-06T02:12:30.509Z,7.85
2023-02-06T02:16:22.238Z,8.45
2023-02-06T02:20:28.618Z,8.43
2023-02-06T02:24:16.043Z,8.07
2023-02-06T02:28:25.306Z,6.60
2023-02-06T02:32:25.412Z,6.10
2023-02-06T02:36:19.651Z,6.72
2023-02-06T02:40:16.878Z,6.53
2023-02-06T02:44:08.223Z,7.10
2023-02-06T02:48:15.440Z,6.72
2023-02-06T02:51:58.843Z,5.95
2023-02-06T02:55:43.626Z,6.30
2023-02-06T02:59:31.663Z,6.37
2023-02-06T03:03:15.845Z,5.75
2023-02-06T03:07:12.216Z,5.93
2023-02-06T03:11:09.778Z,5.70
2023-02-06T03:14:57.646Z,6.43
2023-02-06T03:19:07.254Z,5.30
2023-02-06T03:22:51.467Z,5.93
2023-02-06T03:26:37.400Z,5.65
2023-02-06T03:30:24.050Z,6.35
2023-02-06T03:34:34.257Z,5.60
2023-02-06T03:38:25.861Z,5.60
2023-02-06T03:42:12.118Z,5.60
2023-02-06T03:46:00.527Z,6.13
2023-02-06T03:49:43.977Z,5.80
2023-02-06T03:53:29.273Z,5.35
2023-02-06T03:57:14.364Z,5.30
2023-02-06T04:00:57.187Z,6.53
2023-02-06T04:04:42.009Z,5.80
2023-02-06T04:08:24.166Z,5.63
2023-02-06T04:12:09.792Z,6.00
2023-02-06T04:15:51.946Z,5.90
2023-02-06T04:19:34.443Z,5.35
2023-02-06T04:23:16.601Z,5.88
2023-02-06T04:26:59.171Z,5.07
2023-02-06T04:30:41.260Z,5.60
2023-02-06T04:34:23.331Z,5.53
2023-02-06T04:38:05.312Z,5.70
2023-02-06T04:41:47.395Z,5.97
2023-02-06T04:45:29.419Z,6.10
2023-02-06T04:49:12.128Z,5.30
2023-02-06T04:52:54.080Z,6.17
2023-02-06T04:56:40.549Z,6.30
2023-02-06T05:00:22.780Z,6.10
2023-02-06T05:04:07.455Z,6.07
2023-02-06T05:07:49.465Z,6.50
2023-02-06T05:11:31.627Z,6.60
2023-02-06T05:15:14.502Z,6.63
2023-02-06T05:18:58.219Z,6.70
2023-02-06T05:22:47.397Z,6.75
2023-02-06T05:26:29.690Z,6.35
2023-02-06T05:30:12.504Z,5.40
2023-02-06T05:33:57.093Z,5.97
2023-02-06T05:37:41.326Z,6.05
2023-02-06T05:41:23.560Z,6.10
2023-02-06T05:45:05.995Z,5.13
2023-02-06T05:48:50.195Z,5.40
2023-02-06T05:52:33.874Z,6.50
2023-02-06T05:56:16.093Z,5.70
2023-02-06T05:59:58.143Z,5.75
2023-02-06T06:03:40.205Z,5.60
2023-02-06T06:07:23.442Z,5.77
2023-02-06T06:11:05.659Z,6.03
2023-02-06T06:14:47.873Z,6.25
2023-02-06T06:18:30.003Z,6.27
2023-02-06T06:22:14.246Z,6.03
2023-02-06T06:26:03.829Z,6.35
2023-02-06T06:29:45.840Z,6.33
2023-02-06T06:33:27.881Z,5.88
2023-02-06T06:37:10.005Z,6.45
2023-02-06T06:40:53.069Z,6.45
2023-02-06T06:44:37.595Z,7.33
2023-02-06T06:48:19.602Z,7.53
2023-02-06T06:52:01.603Z,7.07
2023-02-06T06:55:45.915Z,6.83
2023-02-06T06:59:28.052Z,6.28
2023-02-06T07:03:11.880Z,6.55
2023-02-06T07:06:53.876Z,7.17
2023-02-06T07:10:35.971Z,6.65
2023-02-06T07:14:18.363Z,7.43
2023-02-06T07:18:00.581Z,8.20
2023-02-06T07:21:42.655Z,7.07
2023-02-06T07:25:24.723Z,6.55
2023-02-06T07:29:06.725Z,7.18
2023-02-06T07:32:49.085Z,6.60
2023-02-06T07:36:31.343Z,7.28
2023-02-06T07:40:13.729Z,9.57
2023-02-06T07:43:55.751Z,11.50
2023-02-06T07:47:37.763Z,9.70
2023-02-06T07:51:22.160Z,9.70
2023-02-06T07:55:05.109Z,13.45
2023-02-06T08:02:57.124Z,13.13
2023-02-06T08:10:57.136Z,12.80
2023-02-06T08:18:43.573Z,12.45
2023-02-06T08:27:28.906Z,13.60
2023-02-06T08:36:32.655Z,10.27
2023-02-06T08:48:46.863Z,8.88
2023-02-06T09:20:27.266Z,8.00
2023-02-06T11:05:13.060Z,8.68
2023-02-06T11:14:02.980Z,5.70
2023-02-06T11:23:14.854Z,5.17
2023-02-06T11:32:05.766Z,3.45
2023-02-06T11:49:10.189Z,5.75
2023-02-06T12:11:32.918Z,5.70
2023-02-06T12:16:02.760Z,4.30
2023-02-06T12:33:05.942Z,4.10
2023-02-06T12:41:54.117Z,3.55
2023-02-06T12:50:02.512Z,3.63
2023-02-06T12:54:19.383Z,3.28
2023-02-06T13:02:16.865Z,3.67
2023-02-06T13:15:52.563Z,3.13
2023-02-06T13:24:43.358Z,1.83
2023-02-06T13:32:53.733Z,2.37
2023-02-06T13:37:07.550Z,1.50
2023-02-06T13:54:11.506Z,1.70
2023-02-06T14:01:55.641Z,1.87
2023-02-06T16:55:37.945Z,2.83
2023-02-06T16:59:30.530Z,3.60
2023-02-06T17:03:14.327Z,3.88
2023-02-06T17:12:13.728Z,3.53
2023-02-06T17:20:30.781Z,5.40
2023-02-06T17:24:12.912Z,4.80
2023-02-06T17:27:56.373Z,4.23
2023-02-06T17:31:38.617Z,3.65
2023-02-06T17:35:21.064Z,6.07
2023-02-06T17:39:03.350Z,5.03
2023-02-06T17:42:48.993Z,5.17
2023-02-06T17:46:31.264Z,5.43
2023-02-06T17:50:40.045Z,4.10
2023-02-06T17:54:22.271Z,7.47
2023-02-06T17:58:05.470Z,9.25
2023-02-06T18:01:47.685Z,10.93
2023-02-06T18:05:32.544Z,10.43
2023-02-06T18:09:14.949Z,8.23
2023-02-06T18:15:12.108Z,7.90
2023-02-06T18:22:29.895Z,7.27
2023-02-06T18:26:12.333Z,7.75
2023-02-06T18:29:55.342Z,9.00
2023-02-06T18:33:37.510Z,7.53
2023-02-06T18:37:19.530Z,7.82
2023-02-06T18:41:06.405Z,6.63
2023-02-06T18:44:48.479Z,6.43
2023-02-06T18:48:30.549Z,7.70
2023-02-06T18:52:15.127Z,7.75
2023-02-06T18:56:01.615Z,8.13
2023-02-06T18:59:43.949Z,6.70
2023-02-06T19:03:26.065Z,13.23
2023-02-06T19:07:09.125Z,10.23
2023-02-06T19:10:51.200Z,7.83
2023-02-06T19:14:33.309Z,6.70
2023-02-06T19:18:15.337Z,7.82
2023-02-06T19:21:58.038Z,8.20
2023-02-06T19:25:41.358Z,7.57
2023-02-06T19:29:34.860Z,7.50
2023-02-06T19:33:18.010Z,8.55
2023-02-06T19:37:00.100Z,7.33
2023-02-06T19:40:42.126Z,7.43
2023-02-06T19:44:24.135Z,7.38
2023-02-06T19:48:12.232Z,6.93
2023-02-06T19:51:54.349Z,7.07
2023-02-06T19:55:37.089Z,7.10
2023-02-06T19:59:25.356Z,8.13
2023-02-06T20:03:07.374Z,7.95
2023-02-06T20:06:51.537Z,7.90
2023-02-06T20:10:36.826Z,8.20
2023-02-06T20:14:19.868Z,7.23
2023-02-06T20:18:01.889Z,6.78
2023-02-06T20:21:47.857Z,6.63
2023-02-06T20:25:30.213Z,6.73
2023-02-06T20:29:38.734Z,7.22
2023-02-06T20:33:20.739Z,7.47
2023-02-06T20:37:03.140Z,7.60
2023-02-06T20:40:51.091Z,7.20
2023-02-06T20:44:33.139Z,6.88
2023-02-06T20:48:15.154Z,6.88
2023-02-06T20:51:57.336Z,6.33
2023-02-06T20:55:44.241Z,7.60
2023-02-06T20:59:27.693Z,9.30
2023-02-06T21:03:09.883Z,13.23
2023-02-06T21:06:52.186Z,12.93
2023-02-06T21:10:34.375Z,10.27
2023-02-06T21:14:16.948Z,8.83
2023-02-06T21:17:58.908Z,9.70
2023-02-06T21:21:42.426Z,11.07
2023-02-06T21:25:26.514Z,10.55
2023-02-06T21:29:08.557Z,10.30
2023-02-06T21:32:50.550Z,9.55
2023-02-06T21:36:34.472Z,11.20
2023-02-06T21:40:17.203Z,8.87
2023-02-06T21:43:59.298Z,7.93
2023-02-06T21:47:41.201Z,8.30
2023-02-06T21:51:23.480Z,7.70
2023-02-06T21:55:07.594Z,6.95
2023-02-06T21:58:50.122Z,6.85
2023-02-06T22:02:32.131Z,7.55
2023-02-06T22:06:15.146Z,6.17
2023-02-06T22:09:57.078Z,6.82
2023-02-06T22:13:39.890Z,7.18
2023-02-06T22:17:21.845Z,7.10
2023-02-06T22:21:09.627Z,7.00
2023-02-06T22:24:52.003Z,6.65
2023-02-06T22:28:34.184Z,6.30
2023-02-06T22:32:16.158Z,5.43
2023-02-06T22:35:58.179Z,6.57
2023-02-06T22:39:40.193Z,7.55
2023-02-06T22:43:22.877Z,6.17
2023-02-06T22:47:05.008Z,6.00
2023-02-06T22:50:47.360Z,5.55
2023-02-06T22:54:29.460Z,4.80
2023-02-06T22:58:11.464Z,4.63
2023-02-06T23:01:56.090Z,5.00
2023-02-06T23:05:38.313Z,5.83
2023-02-06T23:09:24.182Z,5.47
2023-02-06T23:13:06.325Z,5.15
2023-02-06T23:16:48.716Z,5.28
2023-02-06T23:20:31.112Z,5.27
2023-02-06T23:24:13.824Z,5.55
2023-02-06T23:27:55.900Z,6.15
2023-02-06T23:31:37.941Z,5.40
2023-02-06T23:35:19.954Z,5.47
2023-02-06T23:39:03.464Z,5.82
2023-02-06T23:42:45.570Z,5.93
2023-02-06T23:46:29.784Z,5.47
2023-02-06T23:50:11.796Z,5.32
2023-02-06T23:53:54.144Z,4.90
2023-02-06T23:57:37.930Z,4.20
